Braidwood, Illinois
Current Conditions -  °F | °C
As of 2:55 AM on Wednesday 26 Nov 2014 (Local Time) from KC09 Reporting Station
Haze Haze  
Wind Chill: 10°   Ceiling: Unl
Heat Index: 17°   Visibility: 5mi
Dew Point: 17°   Wind: 5mph
Humidity: 97%   Direction: 70°ENE
Pressure: 30.15"   Gusts: NA
Location:  41.27°N, 88.21°W
Report Text: KC09 260855Z AUTO 07004KT 5SM BR CLR M08/M08 A3015 RMK AO2 T10811085
Loading
Personal Weather Stations






























Interactive Weather Map New forecast layout! Learn more

10-Day Weather Forecast

Advertisements
Track Severe Weather on mobile